createdAt,value
2018-11-20T00:00:01.146Z,1017.67
2018-11-20T00:01:02.202Z,1017.74
2018-11-20T00:02:01.933Z,1017.73
2018-11-20T00:03:01.037Z,1017.68
2018-11-20T00:04:01.065Z,1017.71
2018-11-20T00:05:01.367Z,1017.70
2018-11-20T00:06:01.041Z,1017.65
2018-11-20T00:07:01.052Z,1017.73
2018-11-20T00:08:01.553Z,1017.74
2018-11-20T00:09:02.818Z,1017.73
2018-11-20T00:10:01.080Z,1017.80
2018-11-20T00:11:01.066Z,1017.63
2018-11-20T00:12:01.094Z,1017.82
2018-11-20T00:13:01.085Z,1017.68
2018-11-20T00:14:02.063Z,1017.64
2018-11-20T00:15:01.201Z,1017.70
2018-11-20T00:16:01.300Z,1017.74
2018-11-20T00:17:01.131Z,1017.62
2018-11-20T00:18:01.112Z,1017.61
2018-11-20T00:19:01.094Z,1017.71
2018-11-20T00:20:01.159Z,1017.70
2018-11-20T00:21:01.137Z,1017.77
2018-11-20T00:22:01.322Z,1017.72
2018-11-20T00:23:01.237Z,1017.71
2018-11-20T00:24:01.130Z,1017.72
2018-11-20T00:25:01.336Z,1017.75
2018-11-20T00:26:01.114Z,1017.73
2018-11-20T00:27:01.116Z,1017.66
2018-11-20T00:28:01.179Z,1017.68
2018-11-20T00:29:01.232Z,1017.76
2018-11-20T00:30:01.179Z,1017.86
2018-11-20T00:31:01.179Z,1017.65
2018-11-20T00:32:01.201Z,1017.77
2018-11-20T00:33:01.216Z,1017.58
2018-11-20T00:34:01.139Z,1017.61
2018-11-20T00:35:01.390Z,1017.66
2018-11-20T00:36:01.250Z,1017.70
2018-11-20T00:37:01.148Z,1017.66
2018-11-20T00:38:01.168Z,1017.69
2018-11-20T00:39:02.200Z,1017.63
2018-11-20T00:40:01.166Z,1017.60
2018-11-20T00:41:01.163Z,1017.62
2018-11-20T00:42:01.163Z,1017.60
2018-11-20T00:43:01.191Z,1017.50
2018-11-20T00:44:01.205Z,1017.61
2018-11-20T00:45:01.169Z,1017.56
2018-11-20T00:46:01.181Z,1017.55
2018-11-20T00:47:01.191Z,1017.63
2018-11-20T00:48:01.191Z,1017.62
2018-11-20T00:49:01.216Z,1017.56
2018-11-20T00:50:01.189Z,1017.57
2018-11-20T00:51:01.481Z,1017.59
2018-11-20T00:52:01.198Z,1017.55
2018-11-20T00:53:01.199Z,1017.59
2018-11-20T00:54:01.205Z,1017.65
2018-11-20T00:55:01.240Z,1017.57
2018-11-20T00:56:01.235Z,1017.59
2018-11-20T00:57:01.219Z,1017.50
2018-11-20T00:58:01.217Z,1017.51
2018-11-20T00:59:01.252Z,1017.63
2018-11-20T01:00:01.241Z,1017.48
2018-11-20T01:01:01.225Z,1017.45
2018-11-20T01:02:01.270Z,1017.49
2018-11-20T01:03:01.231Z,1017.53
2018-11-20T01:04:01.229Z,1017.48
2018-11-20T01:05:01.298Z,1017.52
2018-11-20T01:06:01.285Z,1017.44
2018-11-20T01:07:01.244Z,1017.50
2018-11-20T01:08:01.246Z,1017.46
2018-11-20T01:09:01.267Z,1017.41
2018-11-20T01:10:01.279Z,1017.45
2018-11-20T01:11:01.314Z,1017.38
2018-11-20T01:12:01.277Z,1017.37
2018-11-20T01:13:01.289Z,1017.44
2018-11-20T01:14:01.278Z,1017.33
2018-11-20T01:15:01.277Z,1017.35
2018-11-20T01:16:01.293Z,1017.36
2018-11-20T01:17:01.646Z,1017.32
2018-11-20T01:18:01.282Z,1017.46
2018-11-20T01:19:01.283Z,1017.39
2018-11-20T01:20:01.302Z,1017.34
2018-11-20T01:21:01.296Z,1017.38
2018-11-20T01:22:01.288Z,1017.29
2018-11-20T01:23:01.355Z,1017.35
2018-11-20T01:24:01.296Z,1017.24
2018-11-20T01:25:01.355Z,1017.21
2018-11-20T01:26:01.321Z,1017.21
2018-11-20T01:27:01.327Z,1017.19
2018-11-20T01:28:01.334Z,1017.20
2018-11-20T01:29:01.321Z,1017.24
2018-11-20T01:30:01.367Z,1017.24
2018-11-20T01:31:01.327Z,1017.30
2018-11-20T01:32:01.339Z,1017.31
2018-11-20T01:33:01.323Z,1017.24
2018-11-20T01:34:01.349Z,1017.27
2018-11-20T01:35:01.628Z,1017.16
2018-11-20T01:36:01.337Z,1017.13
2018-11-20T01:37:01.347Z,1017.18
2018-11-20T01:38:01.350Z,1017.12
2018-11-20T01:39:01.342Z,1017.18
2018-11-20T01:40:01.366Z,1017.17
2018-11-20T01:41:01.418Z,1017.18
2018-11-20T01:42:01.363Z,1017.11
2018-11-20T01:43:01.371Z,1017.14
2018-11-20T01:44:01.371Z,1017.21
2018-11-20T01:45:01.373Z,1017.10
2018-11-20T01:46:01.371Z,1017.07
2018-11-20T01:47:01.393Z,1017.05
2018-11-20T01:48:01.418Z,1017.08
2018-11-20T01:49:01.377Z,1016.94
2018-11-20T01:50:01.395Z,1017.01
2018-11-20T01:51:01.382Z,1017.03
2018-11-20T01:52:01.394Z,1017.13
2018-11-20T01:53:01.417Z,1017.01
2018-11-20T01:54:01.390Z,1017.19
2018-11-20T01:55:01.421Z,1016.85
2018-11-20T01:56:01.397Z,1017.08
2018-11-20T01:57:01.410Z,1016.91
2018-11-20T01:58:01.427Z,1017.01
2018-11-20T01:59:01.422Z,1017.20
2018-11-20T02:00:01.421Z,1016.96
2018-11-20T02:01:01.457Z,1017.05
2018-11-20T02:02:01.460Z,1017.00
2018-11-20T02:03:01.416Z,1017.01
2018-11-20T02:04:01.458Z,1016.98
2018-11-20T02:05:01.424Z,1016.97
2018-11-20T02:06:01.430Z,1016.96
2018-11-20T02:07:01.435Z,1016.97
2018-11-20T02:08:01.456Z,1016.94
2018-11-20T02:09:01.493Z,1016.99
2018-11-20T02:10:01.466Z,1017.06
2018-11-20T02:11:01.455Z,1016.97
2018-11-20T02:12:01.455Z,1016.92
2018-11-20T02:13:01.477Z,1016.96
2018-11-20T02:14:01.620Z,1016.90
2018-11-20T02:15:01.472Z,1016.97
2018-11-20T02:16:01.480Z,1016.94
2018-11-20T02:17:01.498Z,1016.92
2018-11-20T02:18:01.464Z,1016.91
2018-11-20T02:19:01.476Z,1016.85
2018-11-20T02:20:01.509Z,1016.90
2018-11-20T02:21:01.476Z,1016.90
2018-11-20T02:22:01.496Z,1016.97
2018-11-20T02:23:01.490Z,1016.91
2018-11-20T02:24:01.487Z,1016.84
2018-11-20T02:25:01.516Z,1016.86
2018-11-20T02:26:01.520Z,1016.80
2018-11-20T02:27:01.504Z,1016.80
2018-11-20T02:28:01.500Z,1016.81
2018-11-20T02:29:01.625Z,1016.80
2018-11-20T02:30:01.528Z,1016.81
2018-11-20T02:31:01.544Z,1016.80
2018-11-20T02:32:01.540Z,1016.79
2018-11-20T02:33:01.519Z,1016.83
2018-11-20T02:34:01.523Z,1016.78
2018-11-20T02:35:01.525Z,1016.75
2018-11-20T02:36:01.583Z,1016.77
2018-11-20T02:37:01.531Z,1016.64
2018-11-20T02:38:01.544Z,1016.75
2018-11-20T02:39:01.533Z,1016.71
2018-11-20T02:40:01.578Z,1016.76
2018-11-20T02:41:01.547Z,1016.63
2018-11-20T02:42:01.573Z,1016.75
2018-11-20T02:43:01.573Z,1016.65
2018-11-20T02:44:01.584Z,1016.52
2018-11-20T02:45:01.572Z,1016.54
2018-11-20T02:46:01.559Z,1016.56
2018-11-20T02:47:01.556Z,1016.57
2018-11-20T02:48:01.564Z,1016.68
2018-11-20T02:49:01.561Z,1016.58
2018-11-20T02:50:01.588Z,1016.49
2018-11-20T02:51:01.590Z,1016.51
2018-11-20T02:52:01.585Z,1016.62
2018-11-20T02:53:01.577Z,1016.42
2018-11-20T02:54:01.579Z,1016.45
2018-11-20T02:55:01.604Z,1016.47
2018-11-20T02:56:01.592Z,1016.49
2018-11-20T02:57:01.631Z,1016.41
2018-11-20T02:58:01.609Z,1016.39
2018-11-20T02:59:01.626Z,1016.47
2018-11-20T03:00:01.650Z,1016.51
2018-11-20T03:01:01.607Z,1016.57
2018-11-20T03:02:01.605Z,1016.43
2018-11-20T03:03:01.613Z,1016.42
2018-11-20T03:04:01.617Z,1016.35
2018-11-20T03:05:01.631Z,1016.36
2018-11-20T03:06:01.639Z,1016.34
2018-11-20T03:07:01.624Z,1016.28
2018-11-20T03:08:01.636Z,1016.27
2018-11-20T03:09:01.633Z,1016.26
2018-11-20T03:10:01.627Z,1016.29
2018-11-20T03:11:01.636Z,1016.17
2018-11-20T03:12:01.711Z,1016.23
2018-11-20T03:13:01.683Z,1016.18
2018-11-20T03:14:01.642Z,1016.20
2018-11-20T03:15:01.649Z,1016.14
2018-11-20T03:16:01.719Z,1016.15
2018-11-20T03:17:01.656Z,1016.16
2018-11-20T03:18:01.655Z,1016.05
2018-11-20T03:19:01.674Z,1016.03
2018-11-20T03:20:01.662Z,1016.01
2018-11-20T03:21:01.660Z,1015.96
2018-11-20T03:22:01.687Z,1015.96
2018-11-20T03:23:01.675Z,1015.91
2018-11-20T03:24:01.687Z,1015.85
2018-11-20T03:25:01.681Z,1015.85
2018-11-20T03:26:01.722Z,1015.80
2018-11-20T03:27:01.757Z,1015.85
2018-11-20T03:28:01.690Z,1015.79
2018-11-20T03:29:01.729Z,1015.86
2018-11-20T03:30:01.688Z,1015.82
2018-11-20T03:31:01.692Z,1015.95
2018-11-20T03:32:01.758Z,1015.83
2018-11-20T03:33:01.719Z,1015.87
2018-11-20T03:34:01.709Z,1015.83
2018-11-20T03:35:01.708Z,1015.75
2018-11-20T03:36:01.769Z,1015.74
2018-11-20T03:37:01.732Z,1015.77
2018-11-20T03:38:01.723Z,1015.68
2018-11-20T03:39:01.722Z,1015.66
2018-11-20T03:40:01.734Z,1015.72
2018-11-20T03:41:01.745Z,1015.69
2018-11-20T03:42:01.748Z,1015.73
2018-11-20T03:43:01.728Z,1015.65
2018-11-20T03:44:01.734Z,1015.61
2018-11-20T03:45:01.774Z,1015.63
2018-11-20T03:46:01.745Z,1015.63
2018-11-20T03:47:01.749Z,1015.64
2018-11-20T03:48:01.908Z,1015.61
2018-11-20T03:49:01.777Z,1015.68
2018-11-20T03:50:01.762Z,1015.57
2018-11-20T03:51:01.759Z,1015.61
2018-11-20T03:52:01.785Z,1015.62
2018-11-20T03:53:01.784Z,1015.61
2018-11-20T03:54:01.779Z,1015.68
2018-11-20T03:55:01.778Z,1015.61
2018-11-20T03:56:01.778Z,1015.70
2018-11-20T03:57:01.769Z,1015.63
2018-11-20T03:58:01.817Z,1015.64
2018-11-20T03:59:01.779Z,1015.63
2018-11-20T04:00:01.812Z,1015.59
2018-11-20T04:01:01.819Z,1015.60
2018-11-20T04:02:01.807Z,1015.61
2018-11-20T04:03:01.835Z,1015.66
2018-11-20T04:04:01.796Z,1015.62
2018-11-20T04:05:01.800Z,1015.60
2018-11-20T04:06:01.813Z,1015.64
2018-11-20T04:07:01.811Z,1015.65
2018-11-20T04:08:01.835Z,1015.54
2018-11-20T04:09:01.841Z,1015.55
2018-11-20T04:10:01.827Z,1015.50
2018-11-20T04:11:01.837Z,1015.53
2018-11-20T04:12:01.844Z,1015.52
2018-11-20T04:13:01.845Z,1015.52
2018-11-20T04:14:01.826Z,1015.55
2018-11-20T04:15:01.869Z,1015.51
2018-11-20T04:16:01.837Z,1015.60
2018-11-20T04:17:01.847Z,1015.56
2018-11-20T04:18:01.895Z,1015.56
2018-11-20T04:19:01.857Z,1015.58
2018-11-20T04:20:01.863Z,1015.60
2018-11-20T04:21:01.900Z,1015.60
2018-11-20T04:22:01.861Z,1015.60
2018-11-20T04:23:01.880Z,1015.61
2018-11-20T04:24:01.855Z,1015.76
2018-11-20T04:25:01.895Z,1015.71
2018-11-20T04:26:01.878Z,1015.65
2018-11-20T04:27:01.864Z,1015.79
2018-11-20T04:28:01.872Z,1015.55
2018-11-20T04:29:01.889Z,1015.68
2018-11-20T04:30:01.895Z,1015.72
2018-11-20T04:31:01.884Z,1015.64
2018-11-20T04:32:01.898Z,1015.74
2018-11-20T04:33:01.924Z,1015.69
2018-11-20T04:34:01.892Z,1015.67
2018-11-20T04:35:01.893Z,1015.71
2018-11-20T04:36:01.902Z,1015.84
2018-11-20T04:37:01.933Z,1015.77
2018-11-20T04:38:01.899Z,1015.82
2018-11-20T04:39:01.906Z,1015.77
2018-11-20T04:40:01.942Z,1015.78
2018-11-20T04:41:01.967Z,1015.76
2018-11-20T04:42:01.941Z,1015.76
2018-11-20T04:43:01.935Z,1015.76
2018-11-20T04:44:01.923Z,1015.92
2018-11-20T04:45:01.918Z,1015.80
2018-11-20T04:46:01.948Z,1015.81
2018-11-20T04:47:01.957Z,1015.93
2018-11-20T04:48:01.941Z,1015.80
2018-11-20T04:49:01.951Z,1015.85
2018-11-20T04:50:02.024Z,1015.89
2018-11-20T04:51:01.992Z,1015.79
2018-11-20T04:52:01.959Z,1015.87
2018-11-20T04:53:01.950Z,1015.82
2018-11-20T04:54:01.967Z,1015.87
2018-11-20T04:55:01.964Z,1015.79
2018-11-20T04:56:01.984Z,1015.92
2018-11-20T04:57:01.974Z,1015.87
2018-11-20T04:58:01.998Z,1015.77
2018-11-20T04:59:01.981Z,1015.82
2018-11-20T05:00:01.962Z,1015.91
2018-11-20T05:01:01.994Z,1015.84
2018-11-20T05:02:02.005Z,1015.86
2018-11-20T05:03:01.987Z,1015.90
2018-11-20T05:04:01.985Z,1016.00
2018-11-20T05:05:01.983Z,1015.92
2018-11-20T05:06:01.982Z,1015.88
2018-11-20T05:07:02.025Z,1015.92
2018-11-20T05:08:02.285Z,1015.86
2018-11-20T05:09:02.028Z,1015.87
2018-11-20T05:10:01.994Z,1015.87
2018-11-20T05:11:02.000Z,1015.80
2018-11-20T05:12:02.011Z,1015.79
2018-11-20T05:13:02.011Z,1015.79
2018-11-20T05:14:02.033Z,1015.84
2018-11-20T05:15:02.060Z,1015.91
2018-11-20T05:16:02.014Z,1015.93
2018-11-20T05:17:02.022Z,1015.88
2018-11-20T05:18:02.027Z,1015.89
2018-11-20T05:19:02.064Z,1015.89
2018-11-20T05:20:02.085Z,1015.79
2018-11-20T05:21:02.034Z,1015.87
2018-11-20T05:22:02.047Z,1015.84
2018-11-20T05:23:02.050Z,1015.81
2018-11-20T05:24:02.049Z,1015.76
2018-11-20T05:25:02.067Z,1015.80
2018-11-20T05:26:02.042Z,1015.76
2018-11-20T05:27:02.059Z,1015.73
2018-11-20T05:28:02.159Z,1015.75
2018-11-20T05:29:02.085Z,1015.63
2018-11-20T05:30:02.110Z,1015.88
2018-11-20T05:31:02.165Z,1015.76
2018-11-20T05:32:02.058Z,1015.76
2018-11-20T05:33:02.065Z,1015.78
2018-11-20T05:34:02.066Z,1015.75
2018-11-20T05:35:02.075Z,1015.84
2018-11-20T05:36:02.110Z,1015.73
2018-11-20T05:37:02.090Z,1015.79
2018-11-20T05:38:02.089Z,1015.77
2018-11-20T05:39:02.105Z,1015.86
2018-11-20T05:40:02.083Z,1015.85
2018-11-20T05:41:02.107Z,1015.94
2018-11-20T05:42:02.115Z,1016.07
2018-11-20T05:43:02.126Z,1015.95
2018-11-20T05:44:02.100Z,1015.96
2018-11-20T05:45:02.138Z,1015.94
2018-11-20T05:46:02.112Z,1016.02
2018-11-20T05:47:02.201Z,1016.03
2018-11-20T05:48:02.124Z,1016.11
2018-11-20T05:49:02.112Z,1016.01
2018-11-20T05:50:02.140Z,1016.06
2018-11-20T05:51:02.129Z,1016.06
2018-11-20T05:52:02.156Z,1016.05
2018-11-20T05:53:02.153Z,1016.01
2018-11-20T05:54:02.129Z,1015.97
2018-11-20T05:55:02.138Z,1016.11
2018-11-20T05:56:02.131Z,1016.08
2018-11-20T05:57:02.153Z,1016.12
2018-11-20T05:58:02.244Z,1015.96
2018-11-20T05:59:02.174Z,1016.08
2018-11-20T06:00:02.184Z,1016.03
2018-11-20T06:01:02.164Z,1016.08
2018-11-20T06:02:02.159Z,1015.95
2018-11-20T06:03:02.214Z,1016.01
2018-11-20T06:04:02.177Z,1016.07
2018-11-20T06:05:02.177Z,1016.11
2018-11-20T06:06:02.270Z,1016.15
2018-11-20T06:07:02.167Z,1016.05
2018-11-20T06:08:02.171Z,1016.08
2018-11-20T06:09:02.210Z,1016.07
2018-11-20T06:10:02.186Z,1015.89
2018-11-20T06:11:02.225Z,1016.08
2018-11-20T06:12:02.189Z,1016.13
2018-11-20T06:13:02.192Z,1016.16
2018-11-20T06:14:02.193Z,1016.04
2018-11-20T06:15:02.209Z,1016.19
2018-11-20T06:16:02.208Z,1016.15
2018-11-20T06:17:02.232Z,1016.13
2018-11-20T06:18:02.219Z,1016.13
2018-11-20T06:19:02.322Z,1016.24
2018-11-20T06:20:02.274Z,1016.14
2018-11-20T06:21:02.207Z,1016.13
2018-11-20T06:22:02.214Z,1016.25
2018-11-20T06:23:02.223Z,1016.13
2018-11-20T06:24:02.220Z,1016.12
2018-11-20T06:25:02.228Z,1016.10
2018-11-20T06:26:02.254Z,1016.17
2018-11-20T06:27:02.251Z,1016.16
2018-11-20T06:28:02.235Z,1016.13
2018-11-20T06:29:02.310Z,1016.14
2018-11-20T06:30:02.257Z,1016.17
2018-11-20T06:31:02.283Z,1016.15
2018-11-20T06:32:02.269Z,1016.13
2018-11-20T06:33:02.246Z,1016.13
2018-11-20T06:34:02.254Z,1016.23
2018-11-20T06:35:02.425Z,1016.12
2018-11-20T06:36:02.314Z,1016.16
2018-11-20T06:37:02.299Z,1016.29
2018-11-20T06:38:02.261Z,1016.19
2018-11-20T06:39:02.265Z,1016.10
2018-11-20T06:40:02.266Z,1016.20
2018-11-20T06:41:02.349Z,1016.17
2018-11-20T06:42:02.308Z,1016.18
2018-11-20T06:43:02.311Z,1016.09
2018-11-20T06:44:02.303Z,1016.12
2018-11-20T06:45:02.285Z,1016.16
2018-11-20T06:46:02.302Z,1016.17
2018-11-20T06:47:02.371Z,1016.24
2018-11-20T06:48:02.297Z,1016.21
2018-11-20T06:49:02.292Z,1016.11
2018-11-20T06:50:02.298Z,1016.16
2018-11-20T06:51:02.301Z,1016.05
2018-11-20T06:52:02.350Z,1016.09
2018-11-20T06:53:02.430Z,1016.01
2018-11-20T06:54:02.310Z,1016.08
2018-11-20T06:55:02.318Z,1016.19
2018-11-20T06:56:02.323Z,1016.09
2018-11-20T06:57:02.362Z,1016.15
2018-11-20T06:58:02.327Z,1016.08
2018-11-20T06:59:02.331Z,1016.18
2018-11-20T07:00:02.375Z,1016.18
2018-11-20T07:01:02.333Z,1016.24
2018-11-20T07:02:02.333Z,1016.36
2018-11-20T07:03:02.374Z,1016.28
2018-11-20T07:04:02.364Z,1016.26
2018-11-20T07:05:02.376Z,1016.21
2018-11-20T07:06:02.346Z,1016.32
2018-11-20T07:07:02.423Z,1016.33
2018-11-20T07:08:02.425Z,1016.29
2018-11-20T07:09:02.401Z,1016.24
2018-11-20T07:10:02.359Z,1016.24
2018-11-20T07:11:02.387Z,1016.26
2018-11-20T07:12:02.396Z,1016.29
2018-11-20T07:13:02.377Z,1016.26
2018-11-20T07:14:02.548Z,1016.22
2018-11-20T07:15:02.421Z,1016.25
2018-11-20T07:16:02.635Z,1016.19
2018-11-20T07:17:02.382Z,1016.21
2018-11-20T07:18:02.407Z,1016.19
2018-11-20T07:19:02.388Z,1016.15
2018-11-20T07:20:02.390Z,1016.16
2018-11-20T07:21:02.401Z,1016.15
2018-11-20T07:22:02.435Z,1016.14
2018-11-20T07:23:02.402Z,1016.17
2018-11-20T07:24:02.402Z,1016.20
2018-11-20T07:25:02.436Z,1016.20
2018-11-20T07:26:02.421Z,1016.09
2018-11-20T07:27:02.428Z,1016.17
2018-11-20T07:28:02.455Z,1016.09
2018-11-20T07:29:02.432Z,1016.03
2018-11-20T07:30:02.639Z,1016.01
2018-11-20T07:31:02.542Z,1016.01
2018-11-20T07:32:02.478Z,1015.99
2018-11-20T07:33:02.455Z,1015.99
2018-11-20T07:34:02.462Z,1015.97
2018-11-20T07:35:02.501Z,1016.13
2018-11-20T07:36:02.462Z,1015.99
2018-11-20T07:37:02.548Z,1015.96
2018-11-20T07:38:02.452Z,1015.98
2018-11-20T07:39:02.491Z,1015.89
2018-11-20T07:40:02.485Z,1015.91
2018-11-20T07:41:02.483Z,1015.89
2018-11-20T07:42:02.463Z,1015.86
2018-11-20T07:43:02.487Z,1015.85
2018-11-20T07:44:02.530Z,1015.93
2018-11-20T07:45:02.494Z,1015.86
2018-11-20T07:46:02.496Z,1015.94
2018-11-20T07:47:02.486Z,1016.03
2018-11-20T07:48:02.483Z,1015.84
2018-11-20T07:49:02.489Z,1015.86
2018-11-20T07:50:02.507Z,1015.83
2018-11-20T07:51:02.508Z,1015.83
2018-11-20T07:52:02.488Z,1015.78
2018-11-20T07:53:02.515Z,1015.89
2018-11-20T07:54:02.493Z,1015.82
2018-11-20T07:55:02.548Z,1015.80
2018-11-20T07:56:02.593Z,1015.85
2018-11-20T07:57:02.513Z,1015.85
2018-11-20T07:58:02.549Z,1015.79
2018-11-20T07:59:02.515Z,1015.77
2018-11-20T08:00:02.562Z,1015.86
2018-11-20T08:01:02.526Z,1015.79
2018-11-20T08:02:02.535Z,1015.79
2018-11-20T08:03:02.549Z,1015.78
2018-11-20T08:04:02.532Z,1015.68
2018-11-20T08:05:02.527Z,1015.79
2018-11-20T08:06:02.530Z,1015.70
2018-11-20T08:07:02.544Z,1015.69
2018-11-20T08:08:02.560Z,1015.83
2018-11-20T08:09:02.543Z,1015.71
2018-11-20T08:10:02.545Z,1015.73
2018-11-20T08:11:02.547Z,1015.71
2018-11-20T08:12:02.558Z,1015.69
2018-11-20T08:13:02.558Z,1015.66
2018-11-20T08:14:02.597Z,1015.67
2018-11-20T08:15:02.591Z,1015.70
2018-11-20T08:16:02.618Z,1015.77
2018-11-20T08:17:02.671Z,1015.72
2018-11-20T08:18:02.566Z,1015.70
2018-11-20T08:19:02.612Z,1015.72
2018-11-20T08:20:02.576Z,1015.73
2018-11-20T08:21:02.602Z,1015.70
2018-11-20T08:22:02.608Z,1015.71
2018-11-20T08:23:02.591Z,1015.70
2018-11-20T08:24:02.626Z,1015.70
2018-11-20T08:25:02.601Z,1015.63
2018-11-20T08:26:02.769Z,1015.82
2018-11-20T08:27:02.595Z,1015.66
2018-11-20T08:28:02.636Z,1015.69
2018-11-20T08:29:02.610Z,1015.63
2018-11-20T08:30:02.651Z,1015.61
2018-11-20T08:31:02.683Z,1015.57
2018-11-20T08:32:02.607Z,1015.58
2018-11-20T08:33:02.616Z,1015.68
2018-11-20T08:34:02.683Z,1015.65
2018-11-20T08:35:02.670Z,1015.63
2018-11-20T08:36:02.629Z,1015.61
2018-11-20T08:37:02.659Z,1015.78
2018-11-20T08:38:02.651Z,1015.58
2018-11-20T08:39:02.654Z,1015.60
2018-11-20T08:40:02.653Z,1015.67
2018-11-20T08:41:02.647Z,1015.60
2018-11-20T08:42:02.692Z,1015.60
2018-11-20T08:43:02.679Z,1015.61
2018-11-20T08:44:02.650Z,1015.62
2018-11-20T08:45:02.655Z,1015.62
2018-11-20T08:46:02.716Z,1015.55
2018-11-20T08:47:02.665Z,1015.55
2018-11-20T08:48:02.746Z,1015.61
2018-11-20T08:49:02.689Z,1015.57
2018-11-20T08:50:02.750Z,1015.59
2018-11-20T08:51:02.680Z,1015.59
2018-11-20T08:52:02.684Z,1015.59
2018-11-20T08:53:02.759Z,1015.58
2018-11-20T08:54:02.710Z,1015.55
2018-11-20T08:55:02.697Z,1015.59
2018-11-20T08:56:02.708Z,1015.58
2018-11-20T08:57:02.689Z,1015.61
2018-11-20T08:58:02.693Z,1015.54
2018-11-20T08:59:02.746Z,1015.58
2018-11-20T09:00:02.889Z,1015.52
2018-11-20T09:01:02.709Z,1015.49
2018-11-20T09:02:02.703Z,1015.44
2018-11-20T09:03:02.729Z,1015.57
2018-11-20T09:04:02.712Z,1015.53
2018-11-20T09:05:02.744Z,1015.61
2018-11-20T09:06:02.728Z,1015.52
2018-11-20T09:07:02.743Z,1015.51
2018-11-20T09:08:02.763Z,1015.49
2018-11-20T09:09:02.741Z,1015.46
2018-11-20T09:10:02.834Z,1015.43
2018-11-20T09:11:02.759Z,1015.40
2018-11-20T09:12:02.764Z,1015.40
2018-11-20T09:13:02.785Z,1015.47
2018-11-20T09:14:02.750Z,1015.42
2018-11-20T09:15:02.751Z,1015.40
2018-11-20T09:16:02.779Z,1015.36
2018-11-20T09:17:02.805Z,1015.36
2018-11-20T09:18:02.821Z,1015.36
2018-11-20T09:19:02.780Z,1015.40
2018-11-20T09:20:02.825Z,1015.37
2018-11-20T09:21:02.843Z,1015.43
2018-11-20T09:22:02.781Z,1015.45
2018-11-20T09:23:02.868Z,1015.41
2018-11-20T09:24:02.818Z,1015.42
2018-11-20T09:25:02.791Z,1015.44
2018-11-20T09:26:02.813Z,1015.43
2018-11-20T09:27:02.834Z,1015.46
2018-11-20T09:28:02.833Z,1015.38
2018-11-20T09:29:02.834Z,1015.39
2018-11-20T09:30:02.806Z,1015.34
2018-11-20T09:31:02.805Z,1015.33
2018-11-20T09:32:02.809Z,1015.27
2018-11-20T09:33:02.808Z,1015.45
2018-11-20T09:34:02.871Z,1015.28
2018-11-20T09:35:02.978Z,1015.28
2018-11-20T09:36:02.826Z,1015.26
2018-11-20T09:37:02.818Z,1015.25
2018-11-20T09:38:02.850Z,1015.23
2018-11-20T09:39:02.834Z,1015.14
2018-11-20T09:40:02.888Z,1015.10
2018-11-20T09:41:02.831Z,1015.17
2018-11-20T09:42:02.836Z,1015.13
2018-11-20T09:43:02.932Z,1015.06
2018-11-20T09:44:02.852Z,1015.04
2018-11-20T09:45:02.902Z,1015.00
2018-11-20T09:46:05.623Z,1014.96
2018-11-20T09:47:02.935Z,1014.95
2018-11-20T09:48:02.879Z,1014.94
2018-11-20T09:49:02.881Z,1014.93
2018-11-20T09:50:02.867Z,1014.88
2018-11-20T09:51:02.895Z,1014.97
2018-11-20T09:52:02.879Z,1014.83
2018-11-20T09:53:02.874Z,1014.86
2018-11-20T09:54:02.952Z,1014.93
2018-11-20T09:55:02.880Z,1014.90
2018-11-20T09:56:02.877Z,1014.80
2018-11-20T09:57:02.912Z,1014.73
2018-11-20T09:58:02.885Z,1014.78
2018-11-20T09:59:02.964Z,1014.73
2018-11-20T10:00:03.014Z,1014.72
2018-11-20T10:01:02.912Z,1014.72
2018-11-20T10:02:02.933Z,1014.68
2018-11-20T10:03:02.934Z,1014.70
2018-11-20T10:04:02.936Z,1014.71
2018-11-20T11:38:00.191Z,1014.70
2018-11-20T11:39:00.208Z,1014.39
2018-11-20T11:40:00.181Z,1014.37
2018-11-20T11:41:00.373Z,1014.43
2018-11-20T11:42:00.173Z,1014.38
2018-11-20T11:43:00.180Z,1014.61
2018-11-20T11:44:00.365Z,1014.44
2018-11-20T11:45:00.236Z,1014.33
2018-11-20T11:46:00.191Z,1014.24
2018-11-20T11:47:00.197Z,1014.30
2018-11-20T11:48:00.219Z,1014.23
2018-11-20T11:49:00.223Z,1014.26
2018-11-20T11:50:00.220Z,1014.20
2018-11-20T11:51:00.220Z,1014.18
2018-11-20T11:52:00.197Z,1014.29
2018-11-20T11:53:00.212Z,1014.19
2018-11-20T11:54:00.216Z,1014.25
2018-11-20T11:55:01.371Z,1014.26
2018-11-20T11:56:00.245Z,1014.21
2018-11-20T11:57:00.237Z,1014.27
2018-11-20T11:58:00.229Z,1014.29
2018-11-20T11:59:00.235Z,1014.33
2018-11-20T12:00:00.221Z,1014.45
2018-11-20T12:01:00.290Z,1014.34
2018-11-20T12:04:00.249Z,1014.26
2018-11-20T12:05:00.238Z,1014.27
2018-11-20T12:06:00.271Z,1014.32
2018-11-20T12:07:00.252Z,1014.39
2018-11-20T12:08:00.291Z,1014.30
2018-11-20T12:09:00.272Z,1014.39
2018-11-20T12:10:01.208Z,1014.31
2018-11-20T12:11:00.297Z,1014.30
2018-11-20T12:12:00.285Z,1014.34
2018-11-20T12:13:00.284Z,1014.24
2018-11-20T12:14:00.277Z,1014.32
2018-11-20T12:15:00.380Z,1014.29
2018-11-20T12:16:00.279Z,1014.20
2018-11-20T12:17:00.323Z,1014.45
2018-11-20T12:18:00.293Z,1014.17
2018-11-20T12:19:00.278Z,1014.14
2018-11-20T12:20:00.285Z,1014.16
2018-11-20T12:21:00.293Z,1014.11
2018-11-20T12:22:00.341Z,1014.03
2018-11-20T12:23:00.294Z,1014.05
2018-11-20T12:24:00.326Z,1014.13
2018-11-20T12:25:00.347Z,1014.14
2018-11-20T12:26:00.305Z,1014.05
2018-11-20T12:27:00.312Z,1014.05
2018-11-20T12:28:00.339Z,1013.98
2018-11-20T12:29:00.353Z,1014.07
2018-11-20T12:30:00.322Z,1014.25
2018-11-20T12:31:00.330Z,1013.97
2018-11-20T12:32:00.324Z,1014.01
2018-11-20T12:33:00.330Z,1014.04
2018-11-20T12:34:00.357Z,1013.93
2018-11-20T12:35:00.336Z,1013.96
2018-11-20T12:36:00.359Z,1013.94
2018-11-20T12:37:00.366Z,1013.89
2018-11-20T12:38:01.122Z,1013.85
2018-11-20T12:39:02.634Z,1013.80
2018-11-20T12:40:00.363Z,1014.08
2018-11-20T12:41:00.566Z,1013.84
2018-11-20T12:42:02.522Z,1013.80
2018-11-20T12:43:00.705Z,1013.72
2018-11-20T12:44:01.512Z,1013.67
2018-11-20T12:45:00.442Z,1013.74
2018-11-20T12:46:00.500Z,1013.82
2018-11-20T12:47:00.376Z,1013.75
2018-11-20T12:48:01.732Z,1013.67
2018-11-20T12:49:00.383Z,1013.70
2018-11-20T12:50:00.405Z,1013.74
2018-11-20T12:51:00.427Z,1013.76
2018-11-20T12:52:00.393Z,1013.66
2018-11-20T12:53:02.310Z,1013.66
2018-11-20T12:54:00.390Z,1013.59
2018-11-20T12:55:00.453Z,1013.68
2018-11-20T12:56:00.417Z,1013.67
2018-11-20T12:57:00.416Z,1013.59
2018-11-20T12:58:00.407Z,1013.69
2018-11-20T12:59:00.456Z,1013.72
2018-11-20T13:00:00.869Z,1013.72
2018-11-20T13:01:00.416Z,1013.73
2018-11-20T13:02:00.436Z,1013.68
2018-11-20T13:03:00.450Z,1013.69
2018-11-20T13:04:02.398Z,1013.69
2018-11-20T13:05:00.447Z,1013.68
2018-11-20T13:06:00.496Z,1013.65
2018-11-20T13:07:00.698Z,1013.60
2018-11-20T13:08:00.681Z,1013.64
2018-11-20T13:09:00.901Z,1013.64
2018-11-20T13:10:00.914Z,1013.68
2018-11-20T13:11:01.255Z,1013.63
2018-11-20T13:12:00.513Z,1013.63
2018-11-20T13:13:00.656Z,1013.61
2018-11-20T13:14:00.578Z,1013.63
2018-11-20T13:15:00.470Z,1013.61
2018-11-20T13:16:00.468Z,1013.61
2018-11-20T13:17:00.487Z,1013.62
2018-11-20T13:18:00.514Z,1013.50
2018-11-20T13:19:00.498Z,1013.50
2018-11-20T13:20:03.725Z,1013.59
2018-11-20T13:21:00.481Z,1013.57
2018-11-20T13:22:00.516Z,1013.59
2018-11-20T13:23:00.508Z,1013.56
2018-11-20T13:24:00.533Z,1013.50
2018-11-20T13:25:01.773Z,1013.41
2018-11-20T13:26:01.304Z,1013.48
2018-11-20T13:27:00.602Z,1013.47
2018-11-20T13:28:00.528Z,1013.43
2018-11-20T13:29:00.528Z,1013.56
2018-11-20T13:30:00.536Z,1013.46
2018-11-20T13:31:00.506Z,1013.57
2018-11-20T13:32:00.523Z,1013.45
2018-11-20T13:33:00.525Z,1013.51
2018-11-20T13:34:00.544Z,1013.39
2018-11-20T13:35:00.526Z,1013.42
2018-11-20T13:36:00.534Z,1013.45
2018-11-20T13:37:00.557Z,1013.45
2018-11-20T13:38:00.855Z,1013.38
2018-11-20T13:39:02.975Z,1013.41
2018-11-20T13:40:00.549Z,1013.39